Midpark, Ohio
Current Conditions -  °F | °C
As of 12:51 PM on Friday 28 Nov 2014 (Local Time) from KCLE Reporting Station
Broken Clouds Broken Clouds  
Wind Chill: 16°   Ceiling: 25000
Heat Index: 25°   Visibility: 10mi
Dew Point: 14°   Wind: 9mph
Humidity: 63%   Direction: 210°SSW
Pressure: 30.3"   Gusts: NA
Location:  41.3776°N, 81.7863°W
Report Text: KCLE 281751Z 21008KT 10SM FEW030 SCT100 BKN250 M04/M10 A3030 RMK AO2 SLP271 4/004 933004 60000 T10391100 11039 21067 58026 $
Loading
Personal Weather Stations






























Interactive Weather Map New forecast layout! Learn more

10-Day Weather Forecast

Advertisements
Track Severe Weather on mobile